sensor_id;sensor_type;location;lat;lon;timestamp;pressure;altitude;pressure_sealevel;temperature;humidity
63691;BME280;49837;57.280;27.070;2022-08-30T00:00:34;99760.62;;;18.14;100.0
63691;BME280;49837;57.280;27.070;2022-08-30T00:01:34;99760.06;;;18.17;100.0
63691;BME280;49837;57.280;27.070;2022-08-30T00:02:34;99761.36;;;18.14;100.0
63691;BME280;49837;57.280;27.070;2022-08-30T00:03:40;99765.61;;;18.15;100.0
63691;BME280;49837;57.280;27.070;2022-08-30T00:04:39;99768.44;;;18.18;100.0
63691;BME280;49837;57.280;27.070;2022-08-30T00:05:40;99774.2;;;18.2;100.0
63691;BME280;49837;57.280;27.070;2022-08-30T00:06:40;99781.96;;;18.22;100.0
63691;BME280;49837;57.280;27.070;2022-08-30T00:07:40;99780.83;;;18.23;100.0
63691;BME280;49837;57.280;27.070;2022-08-30T00:08:40;99784.17;;;18.25;100.0
63691;BME280;49837;57.280;27.070;2022-08-30T00:09:40;99781.04;;;18.24;100.0
63691;BME280;49837;57.280;27.070;2022-08-30T00:10:41;99783.32;;;18.23;100.0
63691;BME280;49837;57.280;27.070;2022-08-30T00:11:42;99786.95;;;18.19;100.0
63691;BME280;49837;57.280;27.070;2022-08-30T00:12:42;99780.59;;;18.15;100.0
63691;BME280;49837;57.280;27.070;2022-08-30T00:13:44;99781.91;;;18.16;100.0
63691;BME280;49837;57.280;27.070;2022-08-30T00:14:42;99780.69;;;18.19;100.0
63691;BME280;49837;57.280;27.070;2022-08-30T00:15:43;99778.56;;;18.18;100.0
63691;BME280;49837;57.280;27.070;2022-08-30T00:16:43;99776.77;;;18.19;100.0
63691;BME280;49837;57.280;27.070;2022-08-30T00:17:43;99778.49;;;18.19;100.0
63691;BME280;49837;57.280;27.070;2022-08-30T00:18:44;99778.36;;;18.22;100.0
63691;BME280;49837;57.280;27.070;2022-08-30T00:19:44;99778.08;;;18.22;100.0
63691;BME280;49837;57.280;27.070;2022-08-30T00:20:46;99779.16;;;18.22;100.0
63691;BME280;49837;57.280;27.070;2022-08-30T00:21:45;99780.09;;;18.19;100.0
63691;BME280;49837;57.280;27.070;2022-08-30T00:22:45;99777.5;;;18.23;100.0
63691;BME280;49837;57.280;27.070;2022-08-30T00:23:46;99780.51;;;18.17;100.0
63691;BME280;49837;57.280;27.070;2022-08-30T00:24:46;99774.46;;;18.15;100.0
63691;BME280;49837;57.280;27.070;2022-08-30T00:25:47;99778.66;;;18.16;100.0
63691;BME280;49837;57.280;27.070;2022-08-30T00:26:47;99776.03;;;18.18;100.0
63691;BME280;49837;57.280;27.070;2022-08-30T00:27:47;99776.34;;;18.17;100.0
63691;BME280;49837;57.280;27.070;2022-08-30T00:28:48;99776.8;;;18.17;100.0
63691;BME280;49837;57.280;27.070;2022-08-30T00:29:48;99770.62;;;18.18;100.0
63691;BME280;49837;57.280;27.070;2022-08-30T00:30:49;99773.83;;;18.15;100.0
63691;BME280;49837;57.280;27.070;2022-08-30T00:31:49;99769.84;;;18.15;100.0
63691;BME280;49837;57.280;27.070;2022-08-30T00:32:49;99767.42;;;18.15;100.0
63691;BME280;49837;57.280;27.070;2022-08-30T00:33:49;99770.16;;;18.17;100.0
63691;BME280;49837;57.280;27.070;2022-08-30T00:34:51;99767.6;;;18.13;100.0
63691;BME280;49837;57.280;27.070;2022-08-30T00:35:50;99766.85;;;18.1;100.0
63691;BME280;49837;57.280;27.070;2022-08-30T00:36:50;99764.59;;;18.11;100.0
63691;BME280;49837;57.280;27.070;2022-08-30T00:37:51;99765.45;;;18.11;99.95
63691;BME280;49837;57.280;27.070;2022-08-30T00:38:51;99766.97;;;18.11;99.86
63691;BME280;49837;57.280;27.070;2022-08-30T00:39:52;99766.31;;;18.08;100.0
63691;BME280;49837;57.280;27.070;2022-08-30T00:40:52;99769.12;;;18.03;100.0
63691;BME280;49837;57.280;27.070;2022-08-30T00:41:52;99777.59;;;18.02;100.0
63691;BME280;49837;57.280;27.070;2022-08-30T00:42:55;99782.94;;;18.0;100.0
63691;BME280;49837;57.280;27.070;2022-08-30T00:43:55;99780.53;;;18.0;99.85
63691;BME280;49837;57.280;27.070;2022-08-30T00:44:56;99784.38;;;17.99;99.96
63691;BME280;49837;57.280;27.070;2022-08-30T00:45:56;99788.58;;;17.97;100.0
63691;BME280;49837;57.280;27.070;2022-08-30T00:46:57;99785.33;;;17.96;100.0
63691;BME280;49837;57.280;27.070;2022-08-30T00:47:58;99787.26;;;17.99;99.91
63691;BME280;49837;57.280;27.070;2022-08-30T00:49:02;99789.62;;;18.01;99.86
63691;BME280;49837;57.280;27.070;2022-08-30T00:50:00;99790.93;;;18.0;99.86
63691;BME280;49837;57.280;27.070;2022-08-30T00:51:04;99797.11;;;17.98;99.77
63691;BME280;49837;57.280;27.070;2022-08-30T00:52:05;99795.03;;;17.86;99.83
63691;BME280;49837;57.280;27.070;2022-08-30T00:53:06;99796.52;;;17.84;100.0
63691;BME280;49837;57.280;27.070;2022-08-30T00:54:06;99792.27;;;17.82;100.0
63691;BME280;49837;57.280;27.070;2022-08-30T00:55:06;99789.12;;;17.82;99.84
63691;BME280;49837;57.280;27.070;2022-08-30T00:56:06;99783.31;;;17.78;99.81
63691;BME280;49837;57.280;27.070;2022-08-30T00:57:06;99789.45;;;17.78;99.92
63691;BME280;49837;57.280;27.070;2022-08-30T00:58:10;99785.36;;;17.74;99.68
63691;BME280;49837;57.280;27.070;2022-08-30T00:59:09;99782.53;;;17.64;99.85
63691;BME280;49837;57.280;27.070;2022-08-30T01:00:11;99786.19;;;17.58;99.8
63691;BME280;49837;57.280;27.070;2022-08-30T01:01:10;99782.09;;;17.59;99.68
63691;BME280;49837;57.280;27.070;2022-08-30T01:02:10;99788.7;;;17.56;99.43
63691;BME280;49837;57.280;27.070;2022-08-30T01:03:10;99783.78;;;17.52;99.19
63691;BME280;49837;57.280;27.070;2022-08-30T01:04:11;99790.48;;;17.56;99.06
63691;BME280;49837;57.280;27.070;2022-08-30T01:05:13;99792.33;;;17.56;98.99
63691;BME280;49837;57.280;27.070;2022-08-30T01:06:13;99796.75;;;17.58;98.85
63691;BME280;49837;57.280;27.070;2022-08-30T01:07:12;99796.39;;;17.55;98.12
63691;BME280;49837;57.280;27.070;2022-08-30T01:08:13;99796.45;;;17.49;98.08
63691;BME280;49837;57.280;27.070;2022-08-30T01:09:13;99798.34;;;17.45;98.15
63691;BME280;49837;57.280;27.070;2022-08-30T01:10:14;99802.06;;;17.41;97.78
63691;BME280;49837;57.280;27.070;2022-08-30T01:11:16;99804.58;;;17.38;96.73
63691;BME280;49837;57.280;27.070;2022-08-30T01:12:15;99799.39;;;17.33;95.15
63691;BME280;49837;57.280;27.070;2022-08-30T01:13:15;99802.43;;;17.34;94.7
63691;BME280;49837;57.280;27.070;2022-08-30T01:14:16;99804.73;;;17.32;94.31
63691;BME280;49837;57.280;27.070;2022-08-30T01:15:15;99802.66;;;17.3;94.14
63691;BME280;49837;57.280;27.070;2022-08-30T01:16:16;99804.14;;;17.29;94.45
63691;BME280;49837;57.280;27.070;2022-08-30T01:17:17;99811.8;;;17.27;94.2
63691;BME280;49837;57.280;27.070;2022-08-30T01:18:17;99815.77;;;17.28;93.77
63691;BME280;49837;57.280;27.070;2022-08-30T01:20:30;99826.09;;;17.25;92.62
63691;BME280;49837;57.280;27.070;2022-08-30T01:23:31;99851.02;;;17.16;91.67
63691;BME280;49837;57.280;27.070;2022-08-30T01:24:31;99857.36;;;17.08;91.86
63691;BME280;49837;57.280;27.070;2022-08-30T01:25:33;99861.74;;;17.07;91.91
63691;BME280;49837;57.280;27.070;2022-08-30T01:26:32;99870.2;;;17.05;92.23
63691;BME280;49837;57.280;27.070;2022-08-30T01:27:34;99879.01;;;17.03;92.44
63691;BME280;49837;57.280;27.070;2022-08-30T01:28:33;99889.45;;;17.07;92.7
63691;BME280;49837;57.280;27.070;2022-08-30T01:29:33;99896.12;;;17.04;92.48
63691;BME280;49837;57.280;27.070;2022-08-30T01:30:34;99905.64;;;17.04;92.67
63691;BME280;49837;57.280;27.070;2022-08-30T01:31:34;99908.67;;;17.01;93.03
63691;BME280;49837;57.280;27.070;2022-08-30T01:32:39;99906.78;;;16.99;92.97
63691;BME280;49837;57.280;27.070;2022-08-30T01:33:37;99908.02;;;16.99;93.19
63691;BME280;49837;57.280;27.070;2022-08-30T01:34:37;99916.29;;;16.9;93.43
63691;BME280;49837;57.280;27.070;2022-08-30T01:36:43;99874.28;;;16.64;95.47
63691;BME280;49837;57.280;27.070;2022-08-30T01:37:44;99865.08;;;16.6;95.66
63691;BME280;49837;57.280;27.070;2022-08-30T01:38:49;99833.56;;;16.7;93.9
63691;BME280;49837;57.280;27.070;2022-08-30T01:39:45;99815.88;;;16.91;91.65
63691;BME280;49837;57.280;27.070;2022-08-30T01:40:43;99812.41;;;16.79;92.7
63691;BME280;49837;57.280;27.070;2022-08-30T01:41:44;99815.26;;;16.69;93.46
63691;BME280;49837;57.280;27.070;2022-08-30T01:42:44;99819.31;;;16.55;94.98
63691;BME280;49837;57.280;27.070;2022-08-30T01:43:45;99826.89;;;16.41;96.39
63691;BME280;49837;57.280;27.070;2022-08-30T01:44:45;99830.85;;;16.28;97.36
63691;BME280;49837;57.280;27.070;2022-08-30T01:45:45;99837.8;;;16.12;98.73
63691;BME280;49837;57.280;27.070;2022-08-30T01:46:46;99837.82;;;16.01;100.0
63691;BME280;49837;57.280;27.070;2022-08-30T01:47:46;99838.21;;;15.99;100.0
63691;BME280;49837;57.280;27.070;2022-08-30T01:48:47;99837.77;;;15.98;100.0
63691;BME280;49837;57.280;27.070;2022-08-30T01:49:50;99844.78;;;15.93;100.0
63691;BME280;49837;57.280;27.070;2022-08-30T01:50:51;99840.41;;;15.87;100.0
63691;BME280;49837;57.280;27.070;2022-08-30T01:51:51;99838.02;;;15.9;100.0
63691;BME280;49837;57.280;27.070;2022-08-30T01:52:52;99831.11;;;15.87;100.0
63691;BME280;49837;57.280;27.070;2022-08-30T01:53:53;99838.77;;;15.84;100.0
63691;BME280;49837;57.280;27.070;2022-08-30T01:54:53;99834.91;;;15.77;100.0
63691;BME280;49837;57.280;27.070;2022-08-30T01:55:55;99822.3;;;15.68;100.0
63691;BME280;49837;57.280;27.070;2022-08-30T01:56:54;99814.3;;;15.65;100.0
63691;BME280;49837;57.280;27.070;2022-08-30T01:57:54;99809.41;;;15.67;100.0
63691;BME280;49837;57.280;27.070;2022-08-30T01:58:56;99809.92;;;15.65;100.0
63691;BME280;49837;57.280;27.070;2022-08-30T01:59:59;99802.86;;;15.61;100.0
63691;BME280;49837;57.280;27.070;2022-08-30T02:01:03;99788.52;;;15.57;100.0
63691;BME280;49837;57.280;27.070;2022-08-30T02:02:03;99786.12;;;15.52;100.0
63691;BME280;49837;57.280;27.070;2022-08-30T02:03:03;99787.75;;;15.51;100.0
63691;BME280;49837;57.280;27.070;2022-08-30T02:04:03;99792.66;;;15.56;100.0
63691;BME280;49837;57.280;27.070;2022-08-30T02:05:04;99779.34;;;15.54;100.0
63691;BME280;49837;57.280;27.070;2022-08-30T02:06:05;99779.84;;;15.5;100.0
63691;BME280;49837;57.280;27.070;2022-08-30T02:07:04;99771.38;;;15.53;100.0
63691;BME280;49837;57.280;27.070;2022-08-30T02:08:05;99768.42;;;15.54;100.0
63691;BME280;49837;57.280;27.070;2022-08-30T02:09:05;99775.92;;;15.51;100.0
63691;BME280;49837;57.280;27.070;2022-08-30T02:10:07;99762.36;;;15.57;99.83
63691;BME280;49837;57.280;27.070;2022-08-30T02:11:07;99768.81;;;15.5;100.0
63691;BME280;49837;57.280;27.070;2022-08-30T02:12:07;99761.59;;;15.49;100.0
63691;BME280;49837;57.280;27.070;2022-08-30T02:13:07;99769.89;;;15.46;100.0
63691;BME280;49837;57.280;27.070;2022-08-30T02:14:08;99762.98;;;15.44;100.0
63691;BME280;49837;57.280;27.070;2022-08-30T02:15:08;99752.35;;;15.47;100.0
63691;BME280;49837;57.280;27.070;2022-08-30T02:16:12;99759.01;;;15.5;100.0
63691;BME280;49837;57.280;27.070;2022-08-30T02:17:13;99758.95;;;15.55;99.61
63691;BME280;49837;57.280;27.070;2022-08-30T02:18:11;99753.84;;;15.52;100.0
63691;BME280;49837;57.280;27.070;2022-08-30T02:19:12;99753.06;;;15.46;100.0
63691;BME280;49837;57.280;27.070;2022-08-30T02:20:13;99756.66;;;15.5;100.0
63691;BME280;49837;57.280;27.070;2022-08-30T02:21:13;99749.73;;;15.62;99.09
63691;BME280;49837;57.280;27.070;2022-08-30T02:22:14;99750.81;;;15.64;98.56
63691;BME280;49837;57.280;27.070;2022-08-30T02:23:14;99734.77;;;15.67;98.72
63691;BME280;49837;57.280;27.070;2022-08-30T02:24:14;99737.12;;;15.62;99.5
63691;BME280;49837;57.280;27.070;2022-08-30T02:25:15;99741.22;;;15.6;99.1
63691;BME280;49837;57.280;27.070;2022-08-30T02:26:18;99737.54;;;15.61;99.08
63691;BME280;49837;57.280;27.070;2022-08-30T02:27:17;99739.59;;;15.63;98.65
63691;BME280;49837;57.280;27.070;2022-08-30T02:28:19;99740.77;;;15.62;98.11
63691;BME280;49837;57.280;27.070;2022-08-30T02:29:19;99741.39;;;15.61;98.52
63691;BME280;49837;57.280;27.070;2022-08-30T02:30:19;99737.48;;;15.6;98.05
63691;BME280;49837;57.280;27.070;2022-08-30T02:31:21;99728.16;;;15.66;97.77
63691;BME280;49837;57.280;27.070;2022-08-30T02:32:20;99733.31;;;15.64;97.34
63691;BME280;49837;57.280;27.070;2022-08-30T02:33:20;99736.68;;;15.64;97.21
63691;BME280;49837;57.280;27.070;2022-08-30T02:34:21;99734.83;;;15.63;97.2
63691;BME280;49837;57.280;27.070;2022-08-30T02:35:21;99732.16;;;15.64;96.33
63691;BME280;49837;57.280;27.070;2022-08-30T02:36:22;99731.55;;;15.79;93.86
63691;BME280;49837;57.280;27.070;2022-08-30T02:37:22;99724.89;;;15.78;94.02
63691;BME280;49837;57.280;27.070;2022-08-30T02:38:23;99725.62;;;15.74;94.55
63691;BME280;49837;57.280;27.070;2022-08-30T02:39:23;99722.38;;;15.73;94.14
63691;BME280;49837;57.280;27.070;2022-08-30T02:40:24;99724.91;;;15.71;94.73
63691;BME280;49837;57.280;27.070;2022-08-30T02:41:24;99716.29;;;15.65;95.44
63691;BME280;49837;57.280;27.070;2022-08-30T02:42:24;99727.11;;;15.64;95.24
63691;BME280;49837;57.280;27.070;2022-08-30T02:43:25;99728.77;;;15.63;95.67
63691;BME280;49837;57.280;27.070;2022-08-30T02:44:25;99729.91;;;15.64;95.86
63691;BME280;49837;57.280;27.070;2022-08-30T02:45:26;99734.21;;;15.62;95.71
63691;BME280;49837;57.280;27.070;2022-08-30T02:46:27;99731.81;;;15.64;95.43
63691;BME280;49837;57.280;27.070;2022-08-30T02:47:29;99736.18;;;15.66;95.38
63691;BME280;49837;57.280;27.070;2022-08-30T02:48:30;99734.55;;;15.66;95.71
63691;BME280;49837;57.280;27.070;2022-08-30T02:49:30;99735.0;;;15.6;95.38
63691;BME280;49837;57.280;27.070;2022-08-30T02:50:31;99734.1;;;15.61;95.76
63691;BME280;49837;57.280;27.070;2022-08-30T02:51:31;99737.47;;;15.61;95.86
63691;BME280;49837;57.280;27.070;2022-08-30T02:52:31;99738.42;;;15.6;96.49
63691;BME280;49837;57.280;27.070;2022-08-30T02:53:32;99738.7;;;15.63;95.79
63691;BME280;49837;57.280;27.070;2022-08-30T02:54:33;99737.52;;;15.61;95.96
63691;BME280;49837;57.280;27.070;2022-08-30T02:55:33;99737.41;;;15.63;96.46
63691;BME280;49837;57.280;27.070;2022-08-30T02:56:33;99736.92;;;15.6;96.59
63691;BME280;49837;57.280;27.070;2022-08-30T02:57:34;99736.47;;;15.55;96.96
63691;BME280;49837;57.280;27.070;2022-08-30T02:58:36;99735.47;;;15.57;97.19
63691;BME280;49837;57.280;27.070;2022-08-30T02:59:35;99734.73;;;15.54;97.56
63691;BME280;49837;57.280;27.070;2022-08-30T03:00:37;99733.51;;;15.56;97.82
63691;BME280;49837;57.280;27.070;2022-08-30T03:01:36;99727.72;;;15.58;98.31
63691;BME280;49837;57.280;27.070;2022-08-30T03:02:38;99725.26;;;15.57;99.24
63691;BME280;49837;57.280;27.070;2022-08-30T03:03:38;99725.66;;;15.58;99.33
63691;BME280;49837;57.280;27.070;2022-08-30T03:04:39;99725.64;;;15.62;99.59
63691;BME280;49837;57.280;27.070;2022-08-30T03:05:39;99718.31;;;15.62;99.09
63691;BME280;49837;57.280;27.070;2022-08-30T03:06:39;99720.75;;;15.65;99.03
63691;BME280;49837;57.280;27.070;2022-08-30T03:07:40;99716.18;;;15.64;98.72
63691;BME280;49837;57.280;27.070;2022-08-30T03:08:40;99717.91;;;15.69;98.13
63691;BME280;49837;57.280;27.070;2022-08-30T03:09:41;99718.41;;;15.68;99.02
63691;BME280;49837;57.280;27.070;2022-08-30T03:10:41;99718.18;;;15.7;98.52
63691;BME280;49837;57.280;27.070;2022-08-30T03:11:41;99717.77;;;15.73;98.2
63691;BME280;49837;57.280;27.070;2022-08-30T03:12:42;99723.09;;;15.75;98.33
63691;BME280;49837;57.280;27.070;2022-08-30T03:13:42;99720.84;;;15.79;98.19
63691;BME280;49837;57.280;27.070;2022-08-30T03:14:43;99718.94;;;15.8;98.55
63691;BME280;49837;57.280;27.070;2022-08-30T03:15:43;99720.34;;;15.81;98.61
63691;BME280;49837;57.280;27.070;2022-08-30T03:16:44;99721.64;;;15.8;98.68
63691;BME280;49837;57.280;27.070;2022-08-30T03:17:44;99723.41;;;15.8;98.7
63691;BME280;49837;57.280;27.070;2022-08-30T03:18:45;99720.72;;;15.8;98.71
63691;BME280;49837;57.280;27.070;2022-08-30T03:19:45;99721.72;;;15.83;98.44
63691;BME280;49837;57.280;27.070;2022-08-30T03:20:47;99719.72;;;15.84;98.04
63691;BME280;49837;57.280;27.070;2022-08-30T03:21:51;99716.92;;;15.83;98.32
63691;BME280;49837;57.280;27.070;2022-08-30T03:22:51;99717.91;;;15.85;98.47
63691;BME280;49837;57.280;27.070;2022-08-30T03:23:52;99718.97;;;15.84;98.28
63691;BME280;49837;57.280;27.070;2022-08-30T03:24:52;99721.59;;;15.87;97.48
63691;BME280;49837;57.280;27.070;2022-08-30T03:25:53;99717.73;;;15.85;97.51
63691;BME280;49837;57.280;27.070;2022-08-30T03:26:53;99721.16;;;15.86;97.11
63691;BME280;49837;57.280;27.070;2022-08-30T03:27:53;99721.51;;;15.85;97.31
63691;BME280;49837;57.280;27.070;2022-08-30T03:28:54;99721.45;;;15.83;97.18
63691;BME280;49837;57.280;27.070;2022-08-30T03:29:55;99723.8;;;15.83;97.4
63691;BME280;49837;57.280;27.070;2022-08-30T03:30:55;99722.23;;;15.84;97.1
63691;BME280;49837;57.280;27.070;2022-08-30T03:31:56;99724.53;;;15.82;97.25
63691;BME280;49837;57.280;27.070;2022-08-30T03:32:56;99724.61;;;15.81;97.14
63691;BME280;49837;57.280;27.070;2022-08-30T03:33:56;99727.34;;;15.8;97.69
63691;BME280;49837;57.280;27.070;2022-08-30T03:34:57;99721.23;;;15.78;97.81
63691;BME280;49837;57.280;27.070;2022-08-30T03:35:57;99720.97;;;15.8;97.26
63691;BME280;49837;57.280;27.070;2022-08-30T03:36:58;99714.95;;;15.82;96.79
63691;BME280;49837;57.280;27.070;2022-08-30T03:37:58;99710.64;;;15.83;98.04
63691;BME280;49837;57.280;27.070;2022-08-30T03:38:58;99714.52;;;15.81;99.44
63691;BME280;49837;57.280;27.070;2022-08-30T03:39:59;99706.78;;;15.77;98.9
63691;BME280;49837;57.280;27.070;2022-08-30T03:40:59;99710.2;;;15.76;99.51
63691;BME280;49837;57.280;27.070;2022-08-30T03:42:00;99708.8;;;15.78;100.0
63691;BME280;49837;57.280;27.070;2022-08-30T03:43:00;99712.83;;;15.77;100.0
63691;BME280;49837;57.280;27.070;2022-08-30T03:44:02;99713.39;;;15.75;98.62
63691;BME280;49837;57.280;27.070;2022-08-30T03:45:03;99713.96;;;15.76;98.05
63691;BME280;49837;57.280;27.070;2022-08-30T03:46:02;99712.62;;;15.79;98.55
63691;BME280;49837;57.280;27.070;2022-08-30T03:47:03;99714.23;;;15.8;97.8
63691;BME280;49837;57.280;27.070;2022-08-30T03:48:03;99718.98;;;15.77;96.86
63691;BME280;49837;57.280;27.070;2022-08-30T03:49:04;99721.79;;;15.78;96.07
63691;BME280;49837;57.280;27.070;2022-08-30T03:50:05;99726.41;;;15.78;95.67
63691;BME280;49837;57.280;27.070;2022-08-30T03:51:04;99722.92;;;15.77;95.61
63691;BME280;49837;57.280;27.070;2022-08-30T03:52:05;99721.19;;;15.76;95.76
63691;BME280;49837;57.280;27.070;2022-08-30T03:53:05;99723.98;;;15.75;96.83
63691;BME280;49837;57.280;27.070;2022-08-30T03:54:05;99727.94;;;15.71;97.62
63691;BME280;49837;57.280;27.070;2022-08-30T03:55:07;99727.1;;;15.68;97.8
63691;BME280;49837;57.280;27.070;2022-08-30T03:56:06;99724.69;;;15.68;98.42
63691;BME280;49837;57.280;27.070;2022-08-30T03:57:07;99728.22;;;15.69;98.45
63691;BME280;49837;57.280;27.070;2022-08-30T03:58:11;99727.77;;;15.66;98.68
63691;BME280;49837;57.280;27.070;2022-08-30T03:59:13;99726.31;;;15.62;98.51
63691;BME280;49837;57.280;27.070;2022-08-30T04:00:16;99724.97;;;15.62;98.94
63691;BME280;49837;57.280;27.070;2022-08-30T04:01:14;99728.12;;;15.59;99.45
63691;BME280;49837;57.280;27.070;2022-08-30T04:02:15;99734.12;;;15.6;99.73
63691;BME280;49837;57.280;27.070;2022-08-30T04:03:15;99737.64;;;15.6;98.24
63691;BME280;49837;57.280;27.070;2022-08-30T04:04:16;99739.04;;;15.63;98.72
63691;BME280;49837;57.280;27.070;2022-08-30T04:05:17;99752.09;;;15.65;98.85
63691;BME280;49837;57.280;27.070;2022-08-30T04:06:17;99757.06;;;15.65;99.14
63691;BME280;49837;57.280;27.070;2022-08-30T04:07:18;99768.8;;;15.68;99.67
63691;BME280;49837;57.280;27.070;2022-08-30T04:08:18;99774.91;;;15.66;100.0
63691;BME280;49837;57.280;27.070;2022-08-30T04:09:19;99783.81;;;15.63;100.0
63691;BME280;49837;57.280;27.070;2022-08-30T04:10:20;99796.98;;;15.59;100.0
63691;BME280;49837;57.280;27.070;2022-08-30T04:11:20;99800.12;;;15.57;100.0
63691;BME280;49837;57.280;27.070;2022-08-30T04:12:20;99809.81;;;15.57;100.0
63691;BME280;49837;57.280;27.070;2022-08-30T04:13:22;99812.34;;;15.53;100.0
63691;BME280;49837;57.280;27.070;2022-08-30T04:14:21;99816.94;;;15.55;100.0
63691;BME280;49837;57.280;27.070;2022-08-30T04:15:22;99818.16;;;15.47;100.0
63691;BME280;49837;57.280;27.070;2022-08-30T04:16:23;99819.84;;;15.4;100.0
63691;BME280;49837;57.280;27.070;2022-08-30T04:17:23;99820.45;;;15.44;100.0
63691;BME280;49837;57.280;27.070;2022-08-30T04:18:23;99821.53;;;15.41;100.0
63691;BME280;49837;57.280;27.070;2022-08-30T04:19:23;99831.16;;;15.38;100.0
63691;BME280;49837;57.280;27.070;2022-08-30T04:20:24;99831.28;;;15.41;100.0
63691;BME280;49837;57.280;27.070;2022-08-30T04:21:24;99838.44;;;15.39;100.0
63691;BME280;49837;57.280;27.070;2022-08-30T04:22:25;99839.22;;;15.39;100.0
63691;BME280;49837;57.280;27.070;2022-08-30T04:23:25;99839.51;;;15.36;100.0
63691;BME280;49837;57.280;27.070;2022-08-30T04:24:26;99837.98;;;15.29;100.0
63691;BME280;49837;57.280;27.070;2022-08-30T04:25:26;99835.07;;;15.27;100.0
63691;BME280;49837;57.280;27.070;2022-08-30T04:26:27;99826.66;;;15.27;100.0
63691;BME280;49837;57.280;27.070;2022-08-30T04:27:27;99819.72;;;15.25;100.0
63691;BME280;49837;57.280;27.070;2022-08-30T04:28:28;99815.25;;;15.23;100.0
63691;BME280;49837;57.280;27.070;2022-08-30T04:29:28;99807.17;;;15.21;100.0
63691;BME280;49837;57.280;27.070;2022-08-30T04:30:29;99798.73;;;15.21;100.0
63691;BME280;49837;57.280;27.070;2022-08-30T04:31:29;99788.14;;;15.26;100.0
63691;BME280;49837;57.280;27.070;2022-08-30T04:32:29;99778.95;;;15.19;100.0
63691;BME280;49837;57.280;27.070;2022-08-30T04:33:30;99770.22;;;15.13;100.0
63691;BME280;49837;57.280;27.070;2022-08-30T04:34:31;99756.09;;;15.12;100.0
63691;BME280;49837;57.280;27.070;2022-08-30T04:35:32;99754.59;;;15.1;100.0
63691;BME280;49837;57.280;27.070;2022-08-30T04:36:32;99744.67;;;15.08;100.0
63691;BME280;49837;57.280;27.070;2022-08-30T04:37:32;99740.77;;;15.08;100.0
63691;BME280;49837;57.280;27.070;2022-08-30T04:38:33;99736.05;;;15.1;100.0
63691;BME280;49837;57.280;27.070;2022-08-30T04:39:33;99731.52;;;15.09;100.0
63691;BME280;49837;57.280;27.070;2022-08-30T04:40:33;99732.66;;;15.13;100.0
63691;BME280;49837;57.280;27.070;2022-08-30T04:41:35;99731.14;;;15.16;100.0
63691;BME280;49837;57.280;27.070;2022-08-30T04:42:35;99734.54;;;15.19;100.0
63691;BME280;49837;57.280;27.070;2022-08-30T04:43:35;99729.77;;;15.22;100.0
63691;BME280;49837;57.280;27.070;2022-08-30T04:44:36;99729.01;;;15.21;100.0
63691;BME280;49837;57.280;27.070;2022-08-30T04:45:37;99725.24;;;15.23;100.0
63691;BME280;49837;57.280;27.070;2022-08-30T04:46:36;99725.48;;;15.21;100.0
63691;BME280;49837;57.280;27.070;2022-08-30T04:47:42;99723.69;;;15.16;100.0
63691;BME280;49837;57.280;27.070;2022-08-30T04:48:41;99722.05;;;15.15;100.0
63691;BME280;49837;57.280;27.070;2022-08-30T04:49:41;99719.92;;;15.16;100.0
63691;BME280;49837;57.280;27.070;2022-08-30T04:50:42;99717.52;;;15.14;100.0
63691;BME280;49837;57.280;27.070;2022-08-30T04:51:42;99711.7;;;15.11;100.0
63691;BME280;49837;57.280;27.070;2022-08-30T04:52:43;99709.34;;;15.09;100.0
63691;BME280;49837;57.280;27.070;2022-08-30T04:53:44;99712.82;;;15.11;100.0
63691;BME280;49837;57.280;27.070;2022-08-30T04:54:44;99711.64;;;15.12;100.0
63691;BME280;49837;57.280;27.070;2022-08-30T04:55:44;99711.37;;;15.14;100.0
63691;BME280;49837;57.280;27.070;2022-08-30T04:56:45;99712.77;;;15.17;100.0
63691;BME280;49837;57.280;27.070;2022-08-30T04:57:45;99710.25;;;15.2;100.0
63691;BME280;49837;57.280;27.070;2022-08-30T04:58:46;99707.78;;;15.19;100.0
63691;BME280;49837;57.280;27.070;2022-08-30T04:59:46;99704.3;;;15.2;100.0
63691;BME280;49837;57.280;27.070;2022-08-30T05:00:46;99701.78;;;15.2;100.0
63691;BME280;49837;57.280;27.070;2022-08-30T05:01:47;99701.72;;;15.23;100.0
63691;BME280;49837;57.280;27.070;2022-08-30T05:02:48;99697.91;;;15.28;100.0
63691;BME280;49837;57.280;27.070;2022-08-30T05:03:48;99688.77;;;15.32;100.0
63691;BME280;49837;57.280;27.070;2022-08-30T05:04:48;99693.88;;;15.33;100.0
63691;BME280;49837;57.280;27.070;2022-08-30T05:05:49;99699.69;;;15.38;100.0
63691;BME280;49837;57.280;27.070;2022-08-30T05:06:49;99699.08;;;15.37;100.0
63691;BME280;49837;57.280;27.070;2022-08-30T05:07:50;99702.88;;;15.43;100.0
63691;BME280;49837;57.280;27.070;2022-08-30T05:08:50;99708.59;;;15.44;100.0
63691;BME280;49837;57.280;27.070;2022-08-30T05:09:51;99708.36;;;15.44;100.0
63691;BME280;49837;57.280;27.070;2022-08-30T05:10:51;99713.18;;;15.48;100.0
63691;BME280;49837;57.280;27.070;2022-08-30T05:11:52;99713.23;;;15.48;100.0
63691;BME280;49837;57.280;27.070;2022-08-30T05:12:52;99713.83;;;15.52;100.0
63691;BME280;49837;57.280;27.070;2022-08-30T05:13:53;99712.45;;;15.51;100.0
63691;BME280;49837;57.280;27.070;2022-08-30T05:14:53;99712.51;;;15.49;100.0
63691;BME280;49837;57.280;27.070;2022-08-30T05:15:53;99714.41;;;15.51;100.0
63691;BME280;49837;57.280;27.070;2022-08-30T05:16:54;99706.67;;;15.48;100.0
63691;BME280;49837;57.280;27.070;2022-08-30T05:17:54;99708.02;;;15.53;100.0
63691;BME280;49837;57.280;27.070;2022-08-30T05:18:55;99705.77;;;15.61;100.0
63691;BME280;49837;57.280;27.070;2022-08-30T05:19:55;99702.5;;;15.64;100.0
63691;BME280;49837;57.280;27.070;2022-08-30T05:21:13;99701.04;;;15.64;100.0
63691;BME280;49837;57.280;27.070;2022-08-30T05:21:56;99705.52;;;15.68;100.0